Time;durP1;ratioP1;P1;durP2;ratioP2;P2;SDS_P1;SDS_P2;PMS_P1;PMS_P2;Temp;Humidity;BMP_temperature;BMP_pressure;BME280_temperature;BME280_humidity;BME280_pressure;Samples;Min_cycle;Max_cycle;Signal;HPM_P1;HPM_P2
2023/08/29 00:00:22;;;;;;;0.65;0.60;;;;;;;21.09;59.19;101222.78;4987942;28;20030;-54
2023/08/29 00:02:48;;;;;;;0.77;0.70;;;;;;;21.09;59.30;101217.38;4988213;28;20042;-54
2023/08/29 00:05:13;;;;;;;0.63;0.55;;;;;;;21.08;59.35;101214.81;4987325;28;20049;-54
2023/08/29 00:07:39;;;;;;;0.70;0.60;;;;;;;21.08;58.68;101214.81;4987185;28;20055;-54
2023/08/29 00:10:05;;;;;;;0.45;0.45;;;;;;;21.07;58.75;101219.34;4990887;28;20112;-54
2023/08/29 00:12:34;;;;;;;0.93;0.63;;;;;;;21.06;59.30;101217.66;4986598;28;20034;-54
2023/08/29 00:15:00;;;;;;;1.58;0.60;;;;;;;21.06;58.76;101214.97;4988872;28;20179;-54
2023/08/29 00:17:27;;;;;;;0.50;0.50;;;;;;;21.05;59.19;101209.69;4988104;28;20037;-54
2023/08/29 00:19:53;;;;;;;0.70;0.50;;;;;;;21.04;58.99;101203.44;4987858;28;20042;-54
2023/08/29 00:22:19;;;;;;;0.90;0.65;;;;;;;21.04;58.80;101203.44;4988144;28;20033;-54
2023/08/29 00:24:45;;;;;;;0.80;0.80;;;;;;;21.04;58.77;101202.59;4988285;28;20062;-54
2023/08/29 00:27:10;;;;;;;0.40;0.40;;;;;;;21.03;58.78;101201.72;4988372;28;20140;-54
2023/08/29 00:29:36;;;;;;;0.70;0.60;;;;;;;21.03;59.04;101187.34;4993274;28;20084;-54
2023/08/29 00:32:01;;;;;;;0.40;0.40;;;;;;;21.03;58.58;101195.47;4989602;28;20045;-54
2023/08/29 00:34:27;;;;;;;0.70;0.70;;;;;;;21.01;58.31;101192.91;4987363;28;20070;-55
2023/08/29 00:36:53;;;;;;;0.63;0.57;;;;;;;21.02;58.56;101188.38;4987586;28;20052;-54
2023/08/29 00:39:18;;;;;;;0.63;0.40;;;;;;;21.00;57.77;101191.22;4990019;28;20049;-54
2023/08/29 00:41:48;;;;;;;0.55;0.55;;;;;;;21.00;58.76;101191.22;4987887;28;20041;-54
2023/08/29 00:44:13;;;;;;;0.47;0.47;;;;;;;21.00;58.67;101184.94;4990943;28;21039;-55
2023/08/29 00:46:39;;;;;;;0.85;0.80;;;;;;;20.99;58.78;101184.09;4986630;28;20034;-56
2023/08/29 00:49:05;;;;;;;0.50;0.50;;;;;;;20.98;58.34;101179.72;4989861;28;20111;-54
2023/08/29 00:51:31;;;;;;;1.00;0.57;;;;;;;20.98;58.35;101177.00;4986665;28;20544;-54
2023/08/29 00:53:56;;;;;;;1.10;0.50;;;;;;;20.97;58.58;101178.00;4986501;28;20112;-54
2023/08/29 00:56:23;;;;;;;2.15;0.60;;;;;;;20.97;58.67;101187.97;4988546;28;20029;-54
2023/08/29 00:58:49;;;;;;;2.00;0.52;;;;;;;20.96;58.53;101189.84;4986144;28;20114;-54
2023/08/29 01:01:16;;;;;;;2.08;0.52;;;;;;;20.95;58.40;101181.88;4986712;28;20093;-54
2023/08/29 01:03:42;;;;;;;0.60;0.60;;;;;;;20.96;58.56;101187.16;4986968;28;20404;-54
2023/08/29 01:06:08;;;;;;;0.65;0.65;;;;;;;20.96;58.24;101189.84;4990073;28;20054;-53
2023/08/29 01:08:33;;;;;;;1.02;0.85;;;;;;;20.94;57.74;101178.31;4991464;28;20042;-54
2023/08/29 01:11:13;;;;;;;1.08;0.73;;;;;;;20.94;58.06;101178.31;4987506;28;20060;-54
2023/08/29 01:13:53;;;;;;;1.38;0.60;;;;;;;20.94;58.33;101180.16;4987899;28;20026;-54
2023/08/29 01:16:24;;;;;;;3.22;0.90;;;;;;;20.94;57.63;101174.75;4986569;28;20022;-53
2023/08/29 01:18:52;;;;;;;1.98;0.65;;;;;;;20.93;58.03;101181.19;4987325;28;20482;-54
2023/08/29 01:21:29;;;;;;;0.50;0.50;;;;;;;20.93;57.37;101183.91;4986941;28;20031;-53
2023/08/29 01:24:05;;;;;;;0.50;0.50;;;;;;;20.92;57.98;101176.78;4987463;28;20066;-54
2023/08/29 01:26:32;;;;;;;0.80;0.80;;;;;;;20.92;57.47;101183.03;4992028;28;20026;-54
2023/08/29 01:28:59;;;;;;;0.60;0.60;;;;;;;20.92;57.91;101188.44;4985835;28;20165;-54
2023/08/29 01:31:29;;;;;;;0.90;0.90;;;;;;;20.91;57.85;101192.16;4986892;28;20455;-54
2023/08/29 01:33:57;;;;;;;1.37;0.70;;;;;;;20.91;57.90;101196.75;4987528;28;20046;-54
2023/08/29 01:36:25;;;;;;;0.50;0.50;;;;;;;20.89;58.10;101184.19;4987281;28;20262;-54
2023/08/29 01:38:51;;;;;;;0.50;0.50;;;;;;;20.89;57.74;101186.06;4989363;28;20033;-53
2023/08/29 01:41:16;;;;;;;2.00;0.63;;;;;;;20.88;57.43;101179.78;4986028;28;20041;-53
2023/08/29 01:43:41;;;;;;;0.75;0.75;;;;;;;20.89;58.00;101194.19;4985424;28;20027;-54
2023/08/29 01:46:07;;;;;;;0.40;0.40;;;;;;;20.87;57.56;101188.91;4985778;28;20068;-54
2023/08/29 01:48:33;;;;;;;0.50;0.50;;;;;;;20.87;57.37;101196.19;4987052;28;20030;-54
2023/08/29 01:50:59;;;;;;;0.60;0.60;;;;;;;20.86;57.53;101191.78;4986000;28;20420;-54
2023/08/29 01:53:24;;;;;;;0.40;0.40;;;;;;;20.85;58.11;101185.53;4986553;28;20040;-54
2023/08/29 01:55:51;;;;;;;0.70;0.70;;;;;;;20.85;57.72;101188.22;4988693;28;20388;-54
2023/08/29 01:58:17;;;;;;;0.73;0.52;;;;;;;20.84;56.21;101191.94;4986070;28;20121;-54
2023/08/29 02:00:43;;;;;;;0.50;0.50;;;;;;;20.84;57.57;101197.34;4986041;28;20026;-54
2023/08/29 02:03:09;;;;;;;0.50;0.50;;;;;;;20.83;57.39;101200.22;4985640;28;20034;-53
2023/08/29 02:05:34;;;;;;;0.50;0.40;;;;;;;20.83;57.43;101198.38;4986139;28;20035;-54
2023/08/29 02:08:00;;;;;;;0.40;0.40;;;;;;;20.82;57.52;101207.47;4984833;28;20057;-54
2023/08/29 02:10:25;;;;;;;0.45;0.40;;;;;;;20.82;57.64;101198.53;4986601;28;20046;-54
2023/08/29 02:12:50;;;;;;;0.80;0.60;;;;;;;20.81;57.55;101203.09;4985405;28;20061;-54
2023/08/29 02:15:16;;;;;;;0.65;0.47;;;;;;;20.81;57.05;101205.81;4985141;28;20062;-53
2023/08/29 02:17:41;;;;;;;0.50;0.50;;;;;;;20.81;57.30;101202.22;4985158;28;20511;-54
2023/08/29 02:20:07;;;;;;;0.40;0.40;;;;;;;20.80;57.33;101200.53;4984859;28;20066;-54
2023/08/29 02:22:33;;;;;;;0.50;0.50;;;;;;;20.79;56.53;101202.41;4987074;28;20034;-54
2023/08/29 02:25:00;;;;;;;1.50;0.50;;;;;;;20.78;56.83;101208.81;4984723;28;20126;-54
2023/08/29 02:27:26;;;;;;;2.53;0.50;;;;;;;20.77;56.88;101212.53;4988067;28;20035;-53
2023/08/29 02:29:51;;;;;;;0.80;0.60;;;;;;;20.78;57.10;101207.97;4989177;28;20143;-54
2023/08/29 02:32:18;;;;;;;0.52;0.50;;;;;;;20.78;56.42;101210.66;4987493;28;20073;-54
2023/08/29 02:34:43;;;;;;;0.68;0.55;;;;;;;20.77;57.13;101215.25;4985775;28;20037;-54
2023/08/29 02:37:08;;;;;;;0.60;0.60;;;;;;;20.78;56.91;101224.19;4985598;28;20033;-54
2023/08/29 02:39:34;;;;;;;1.50;0.60;;;;;;;20.76;57.21;101231.63;4988806;28;20454;-54
2023/08/29 02:41:59;;;;;;;0.50;0.50;;;;;;;20.76;56.61;101237.03;4986320;28;20081;-54
2023/08/29 02:44:25;;;;;;;1.42;0.85;;;;;;;20.77;56.69;101241.44;4986121;28;20361;-54
2023/08/29 02:46:50;;;;;;;1.92;0.50;;;;;;;20.75;56.62;101247.00;4987595;28;20041;-54
2023/08/29 02:49:15;;;;;;;1.55;0.60;;;;;;;20.76;56.86;101245.16;4985080;28;20117;-53
2023/08/29 02:51:41;;;;;;;0.40;0.40;;;;;;;20.76;56.91;101242.44;4984951;28;20045;-54
2023/08/29 02:54:06;;;;;;;1.00;0.50;;;;;;;20.75;56.65;101240.72;4986154;28;20035;-54
2023/08/29 02:56:32;;;;;;;0.60;0.60;;;;;;;20.74;57.15;101239.06;4985475;28;20497;-55
2023/08/29 02:58:57;;;;;;;0.82;0.60;;;;;;;20.74;56.97;101228.22;4988600;28;20037;-54
2023/08/29 03:01:22;;;;;;;1.02;0.40;;;;;;;20.73;56.65;101232.75;4987900;28;20038;-55
2023/08/29 03:03:48;;;;;;;1.55;0.70;;;;;;;20.72;56.45;101232.94;4985652;28;20022;-54
2023/08/29 03:06:13;;;;;;;0.40;0.40;;;;;;;20.72;56.88;101235.66;4984709;28;20388;-54
2023/08/29 03:08:38;;;;;;;0.50;0.50;;;;;;;20.72;56.80;101243.78;4984316;28;20058;-54
2023/08/29 03:11:04;;;;;;;0.60;0.60;;;;;;;20.70;56.89;101242.06;4985621;28;20034;-55
2023/08/29 03:13:30;;;;;;;2.63;0.60;;;;;;;20.70;56.91;101236.66;4986119;28;20034;-54
2023/08/29 03:15:57;;;;;;;0.80;0.65;;;;;;;20.70;56.54;101233.09;4985860;28;20027;-55
2023/08/29 03:18:23;;;;;;;1.15;0.57;;;;;;;20.70;56.41;101243.91;4988925;28;20030;-54
2023/08/29 03:20:48;;;;;;;1.33;0.68;;;;;;;20.69;56.36;101237.66;4986019;28;20458;-55
2023/08/29 03:23:14;;;;;;;0.50;0.50;;;;;;;20.68;56.63;101230.53;4986490;28;20031;-54
2023/08/29 03:25:39;;;;;;;1.92;0.60;;;;;;;20.68;56.73;101237.81;4986189;28;20081;-55
2023/08/29 03:28:05;;;;;;;0.93;0.63;;;;;;;20.68;56.86;101238.66;4984318;28;20065;-55
2023/08/29 03:30:30;;;;;;;0.82;0.40;;;;;;;20.68;56.41;101229.69;4988477;28;20062;-54
2023/08/29 03:32:56;;;;;;;0.60;0.60;;;;;;;20.67;56.94;101227.97;4988928;28;20500;-55
2023/08/29 03:35:21;;;;;;;1.25;0.60;;;;;;;20.66;56.46;101221.72;4988695;28;20046;-55
2023/08/29 03:37:46;;;;;;;0.68;0.45;;;;;;;20.66;56.73;101221.72;4989514;28;20034;-54
2023/08/29 03:40:12;;;;;;;1.67;0.60;;;;;;;20.66;56.37;101210.06;4988406;28;20050;-54
2023/08/29 03:42:41;;;;;;;1.15;0.50;;;;;;;20.64;56.83;101204.81;4987663;28;20034;-55
2023/08/29 03:45:08;;;;;;;0.73;0.60;;;;;;;20.64;56.58;101204.81;4987476;28;20473;-54
2023/08/29 03:47:34;;;;;;;0.73;0.65;;;;;;;20.64;56.51;101198.56;4989164;28;20026;-55
2023/08/29 03:49:59;;;;;;;0.57;0.40;;;;;;;20.63;56.56;101194.97;4989174;28;20101;-55
2023/08/29 03:52:26;;;;;;;0.65;0.60;;;;;;;20.63;56.68;101194.97;4989062;28;20519;-54
2023/08/29 03:54:52;;;;;;;0.95;0.80;;;;;;;20.62;56.59;101193.28;4989968;28;20069;-55
2023/08/29 03:57:18;;;;;;;0.70;0.70;;;;;;;20.62;56.72;101187.88;4990869;28;20034;-55
2023/08/29 03:59:43;;;;;;;0.80;0.80;;;;;;;20.62;56.42;101184.28;4988835;28;20038;-55
2023/08/29 04:02:08;;;;;;;0.60;0.60;;;;;;;20.62;56.21;101189.72;4988724;28;20030;-54
2023/08/29 04:04:35;;;;;;;1.38;0.60;;;;;;;20.61;56.41;101188.88;4993153;28;20037;-55
2023/08/29 04:07:01;;;;;;;1.00;0.60;;;;;;;20.60;56.28;101191.72;4987859;28;20057;-55
2023/08/29 04:09:26;;;;;;;2.40;0.88;;;;;;;20.60;56.55;101189.00;4987493;28;20034;-55
2023/08/29 04:11:51;;;;;;;1.42;0.63;;;;;;;20.59;56.22;101182.72;4987848;28;20081;-55
2023/08/29 04:14:17;;;;;;;0.95;0.88;;;;;;;20.59;55.99;101185.44;4985163;28;20034;-54
2023/08/29 04:16:44;;;;;;;0.68;0.60;;;;;;;20.58;55.75;101181.06;4988419;28;20516;-55
2023/08/29 04:19:09;;;;;;;0.90;0.77;;;;;;;20.58;56.32;101177.47;4988818;28;20481;-54
2023/08/29 04:21:35;;;;;;;0.77;0.77;;;;;;;20.57;56.30;101168.50;4988321;28;20081;-54
2023/08/29 04:24:00;;;;;;;2.03;0.63;;;;;;;20.58;56.12;101164.81;4988114;28;20472;-55
2023/08/29 04:26:25;;;;;;;0.80;0.80;;;;;;;20.57;56.19;101173.91;4987698;28;20120;-55
2023/08/29 04:28:51;;;;;;;1.75;0.60;;;;;;;20.57;56.23;101173.91;4987489;28;20029;-55
2023/08/29 04:31:19;;;;;;;2.08;0.80;;;;;;;20.56;55.99;101165.97;4987161;28;20034;-55
2023/08/29 04:33:45;;;;;;;1.77;0.70;;;;;;;20.55;56.20;101159.69;4994657;28;20038;-55
2023/08/29 04:36:10;;;;;;;0.57;0.57;;;;;;;20.55;55.89;101170.53;4986200;28;20023;-55
2023/08/29 04:38:35;;;;;;;0.73;0.43;;;;;;;20.55;55.50;101169.69;4990057;28;20144;-54
2023/08/29 04:41:01;;;;;;;1.42;0.98;;;;;;;20.54;55.00;101168.81;4987763;28;20038;-54
2023/08/29 04:43:27;;;;;;;1.08;0.80;;;;;;;20.53;55.85;101175.25;4987221;28;20174;-55
2023/08/29 04:45:52;;;;;;;2.15;0.93;;;;;;;20.53;56.02;101174.41;4990175;28;20526;-55
2023/08/29 04:48:18;;;;;;;2.55;0.63;;;;;;;20.54;55.86;101159.84;4986619;28;20043;-55
2023/08/29 04:50:45;;;;;;;1.23;0.60;;;;;;;20.51;55.87;101159.16;4985295;28;20066;-55
2023/08/29 04:53:11;;;;;;;1.65;0.80;;;;;;;20.51;56.01;101158.31;4987105;28;20038;-54
2023/08/29 04:55:37;;;;;;;0.68;0.68;;;;;;;20.51;56.04;101169.13;4984813;28;20038;-54
2023/08/29 04:58:02;;;;;;;0.85;0.80;;;;;;;20.50;55.19;101173.72;4986949;28;20038;-54
2023/08/29 05:00:28;;;;;;;1.00;0.60;;;;;;;20.50;55.82;101168.28;4986355;28;20053;-54
2023/08/29 05:02:54;;;;;;;0.70;0.68;;;;;;;20.50;56.11;101172.84;4986158;28;20027;-54
2023/08/29 05:05:20;;;;;;;2.85;0.77;;;;;;;20.52;55.27;101181.63;4986233;28;20033;-54
2023/08/29 05:07:45;;;;;;;0.70;0.63;;;;;;;20.49;56.27;101172.00;4986297;28;20039;-54
2023/08/29 05:10:11;;;;;;;0.50;0.50;;;;;;;20.50;55.36;101172.84;4984560;28;20129;-54
2023/08/29 05:12:36;;;;;;;0.93;0.50;;;;;;;20.49;56.23;101172.00;4994813;28;20038;-54
2023/08/29 05:15:02;;;;;;;2.35;0.60;;;;;;;20.49;55.54;101172.00;4988855;28;20165;-54
2023/08/29 05:17:27;;;;;;;2.75;0.80;;;;;;;20.48;55.92;101170.28;5002036;28;20080;-54
2023/08/29 05:19:52;;;;;;;0.50;0.50;;;;;;;20.48;56.01;101169.44;4987069;28;20038;-54
2023/08/29 05:22:18;;;;;;;0.40;0.40;;;;;;;20.49;55.50;101168.44;4987204;28;20088;-54
2023/08/29 05:24:43;;;;;;;0.60;0.60;;;;;;;20.49;55.53;101157.63;4987047;28;20041;-54
2023/08/29 05:27:08;;;;;;;0.50;0.50;;;;;;;20.48;55.88;101153.22;4987002;28;20034;-54
2023/08/29 05:29:34;;;;;;;0.80;0.50;;;;;;;20.47;56.06;101156.94;4989727;28;20374;-54
2023/08/29 05:31:59;;;;;;;0.60;0.55;;;;;;;20.48;55.71;101166.72;4985982;28;20389;-54
2023/08/29 05:34:25;;;;;;;1.05;0.95;;;;;;;20.48;56.05;101164.88;4986921;28;20042;-54
2023/08/29 05:36:51;;;;;;;0.50;0.50;;;;;;;20.48;56.01;101177.56;4990000;28;20026;-54
2023/08/29 05:39:17;;;;;;;0.40;0.38;;;;;;;20.48;55.67;101181.09;4987920;28;20433;-54
2023/08/29 05:41:42;;;;;;;0.90;0.50;;;;;;;20.47;56.08;101171.31;4986663;28;20111;-54
2023/08/29 05:44:07;;;;;;;2.25;0.50;;;;;;;20.48;56.41;101162.16;4988118;28;20129;-54
2023/08/29 05:46:33;;;;;;;1.75;0.70;;;;;;;20.48;56.01;101174.84;4992198;28;20030;-54
2023/08/29 05:48:59;;;;;;;0.82;0.63;;;;;;;20.48;56.17;101172.16;4991378;28;20391;-54
2023/08/29 05:51:28;;;;;;;0.65;0.55;;;;;;;20.47;55.29;101167.75;4991462;28;20034;-54
2023/08/29 05:53:53;;;;;;;1.58;0.90;;;;;;;20.46;56.29;101172.28;4989931;28;20034;-54
2023/08/29 05:56:19;;;;;;;1.08;0.55;;;;;;;20.47;55.72;101173.16;4991899;28;20146;-54
2023/08/29 05:58:45;;;;;;;0.52;0.40;;;;;;;20.47;56.20;101173.16;4992050;28;20049;-53
2023/08/29 06:01:11;;;;;;;1.10;0.70;;;;;;;20.47;55.90;101179.41;4992081;28;20026;-54
2023/08/29 06:03:36;;;;;;;4.93;0.70;;;;;;;20.47;56.17;101179.41;4992946;28;20137;-54
2023/08/29 06:06:03;;;;;;;1.02;0.60;;;;;;;20.46;55.87;101177.69;4991163;28;20109;-54
2023/08/29 06:08:29;;;;;;;3.42;0.70;;;;;;;20.47;55.88;101181.28;4993370;28;20086;-54
2023/08/29 06:10:54;;;;;;;0.60;0.60;;;;;;;20.46;55.57;101176.84;4991312;28;20057;-54
2023/08/29 06:13:20;;;;;;;4.47;0.80;;;;;;;20.46;55.56;101171.44;4991249;28;20069;-54
2023/08/29 06:15:45;;;;;;;0.80;0.80;;;;;;;20.45;55.45;101169.78;4991176;28;20025;-54
2023/08/29 06:18:11;;;;;;;2.10;0.80;;;;;;;20.46;55.60;101182.28;4991887;28;20469;-54
2023/08/29 06:20:36;;;;;;;0.68;0.55;;;;;;;20.46;55.64;101176.84;4990984;28;20081;-54
2023/08/29 06:23:03;;;;;;;0.93;0.50;;;;;;;20.45;56.18;101186.00;4991724;28;20065;-54
2023/08/29 06:25:28;;;;;;;2.63;0.60;;;;;;;20.45;56.05;101177.88;4993411;28;20034;-54
2023/08/29 06:27:54;;;;;;;0.50;0.50;;;;;;;20.44;55.84;101179.72;4992094;28;20033;-54
2023/08/29 06:30:19;;;;;;;3.92;0.70;;;;;;;20.46;55.74;101185.81;4985493;28;20105;-54
2023/08/29 06:32:45;;;;;;;1.08;0.82;;;;;;;20.46;55.87;101182.28;4984883;28;20508;-54
2023/08/29 06:35:11;;;;;;;1.63;0.68;;;;;;;20.44;56.21;101181.56;4988342;28;20120;-54
2023/08/29 06:37:37;;;;;;;1.15;0.60;;;;;;;20.43;56.39;101178.03;4988171;28;20026;-54
2023/08/29 06:40:07;;;;;;;4.70;1.00;;;;;;;20.43;56.65;101178.03;4988731;28;20404;-54
2023/08/29 06:42:32;;;;;;;1.65;0.95;;;;;;;20.42;56.38;101168.19;4986104;28;20042;-54
2023/08/29 06:44:58;;;;;;;3.42;0.93;;;;;;;20.42;56.40;101175.47;4984230;28;20477;-54
2023/08/29 06:47:24;;;;;;;3.00;1.20;;;;;;;20.40;57.03;101174.78;4981963;28;20125;-54
2023/08/29 06:49:52;;;;;;;4.97;1.00;;;;;;;20.40;57.05;101175.63;4987697;28;20047;-54
2023/08/29 06:52:18;;;;;;;1.70;0.90;;;;;;;20.42;56.50;101170.91;4984432;28;20038;-54
2023/08/29 06:54:43;;;;;;;1.00;0.80;;;;;;;20.44;56.77;101174.31;4987355;28;20104;-53
2023/08/29 06:57:09;;;;;;;2.60;1.08;;;;;;;20.45;56.82;101172.47;4985920;28;20477;-54
2023/08/29 06:59:35;;;;;;;7.82;1.52;;;;;;;20.46;56.55;101174.16;4987164;28;20022;-54
2023/08/29 07:02:00;;;;;;;1.27;0.90;;;;;;;20.48;56.49;101166.72;4989160;28;20113;-53
2023/08/29 07:04:25;;;;;;;4.97;1.00;;;;;;;20.48;56.57;101166.72;4992895;28;20029;-54
2023/08/29 07:06:51;;;;;;;1.63;0.95;;;;;;;20.50;56.54;101164.72;4996214;28;20037;-53
2023/08/29 07:09:16;;;;;;;0.98;0.80;;;;;;;20.49;56.61;101166.59;4995954;28;20049;-53
2023/08/29 07:11:42;;;;;;;1.50;1.10;;;;;;;20.52;56.46;101168.13;4997001;28;20468;-53
2023/08/29 07:14:07;;;;;;;1.65;0.90;;;;;;;20.54;56.62;101176.09;4995554;28;20041;-53
2023/08/29 07:16:32;;;;;;;1.05;0.65;;;;;;;20.52;56.59;101176.22;4989089;28;20466;-53
2023/08/29 07:18:58;;;;;;;1.75;0.73;;;;;;;20.54;56.05;101170.66;4994801;28;20037;-53
2023/08/29 07:21:24;;;;;;;2.00;0.98;;;;;;;20.54;56.87;101174.22;4994610;28;20052;-53
2023/08/29 07:23:49;;;;;;;1.50;0.80;;;;;;;20.56;56.63;101174.94;4996093;28;20365;-46
2023/08/29 07:26:15;;;;;;;0.70;0.65;;;;;;;20.56;56.73;101180.34;4995438;28;20043;-48
2023/08/29 07:28:40;;;;;;;3.22;0.80;;;;;;;20.57;56.84;101181.19;4995753;28;20065;-49
2023/08/29 07:31:05;;;;;;;2.28;0.90;;;;;;;20.57;56.42;101183.91;4995880;28;20054;-45
2023/08/29 07:33:31;;;;;;;4.22;1.13;;;;;;;20.56;56.88;101185.75;4993866;28;20034;-46
2023/08/29 07:35:56;;;;;;;5.32;0.90;;;;;;;20.56;56.44;101188.47;4993233;28;20113;-45
2023/08/29 07:38:22;;;;;;;2.80;0.98;;;;;;;20.57;56.96;101184.75;4992200;28;20037;-46
2023/08/29 07:40:47;;;;;;;1.08;1.00;;;;;;;20.58;56.97;101189.16;4993411;28;20038;-47
2023/08/29 07:43:14;;;;;;;1.60;0.88;;;;;;;20.58;57.32;101191.88;4995410;28;20042;-45
2023/08/29 07:45:39;;;;;;;1.50;0.93;;;;;;;20.58;56.85;101191.88;4989424;28;20038;-46
2023/08/29 07:48:05;;;;;;;2.15;1.00;;;;;;;20.59;56.80;101198.97;4995952;28;20042;-47
2023/08/29 07:50:31;;;;;;;3.25;0.77;;;;;;;20.59;56.92;101190.84;4989537;28;20022;-47
2023/08/29 07:52:56;;;;;;;0.88;0.63;;;;;;;20.61;57.23;101190.72;4991502;28;20041;-48
2023/08/29 07:55:21;;;;;;;0.93;0.90;;;;;;;20.61;57.73;101194.28;4992018;28;20045;-49
2023/08/29 07:57:48;;;;;;;1.95;0.88;;;;;;;20.62;57.26;101192.41;4994372;28;20384;-47
2023/08/29 08:00:14;;;;;;;3.55;0.80;;;;;;;20.62;56.94;101187.88;4993738;28;20034;-49
2023/08/29 08:02:40;;;;;;;1.63;0.73;;;;;;;20.62;56.97;101187.00;4996180;28;20026;-48
2023/08/29 08:05:05;;;;;;;2.47;0.90;;;;;;;20.61;57.02;101179.91;4995214;28;20045;-49
2023/08/29 08:07:31;;;;;;;2.97;0.88;;;;;;;20.62;57.11;101171.63;4992943;28;20050;-49
2023/08/29 08:09:56;;;;;;;3.53;0.90;;;;;;;20.63;57.47;101178.72;4989202;28;20030;-48
2023/08/29 08:12:21;;;;;;;1.20;0.82;;;;;;;20.64;57.69;101180.44;4988620;28;20460;-53
2023/08/29 08:14:47;;;;;;;0.60;0.60;;;;;;;20.64;57.85;101180.44;4987481;28;20064;-54
2023/08/29 08:17:12;;;;;;;1.67;0.73;;;;;;;20.64;57.91;101185.03;4990600;28;20026;-53
2023/08/29 08:19:37;;;;;;;3.08;0.70;;;;;;;20.65;57.84;101178.59;4992052;28;20034;-54
2023/08/29 08:22:03;;;;;;;2.22;0.98;;;;;;;20.67;58.00;101184.69;4988219;28;20541;-54
2023/08/29 08:24:28;;;;;;;3.17;0.60;;;;;;;20.66;57.95;101183.84;4988249;28;20081;-54
2023/08/29 08:26:54;;;;;;;0.80;0.80;;;;;;;20.65;57.65;101186.69;4987816;28;20088;-52
2023/08/29 08:29:19;;;;;;;2.38;0.80;;;;;;;20.64;57.68;101188.56;4992582;28;20485;-55
2023/08/29 08:31:45;;;;;;;2.50;0.75;;;;;;;20.65;57.80;101192.94;4989275;28;20478;-53
2023/08/29 08:34:12;;;;;;;2.55;0.93;;;;;;;20.67;58.21;101193.66;4988979;28;20343;-53
2023/08/29 08:36:38;;;;;;;2.00;0.60;;;;;;;20.67;58.27;101190.94;4990599;28;20109;-54
2023/08/29 08:39:04;;;;;;;0.98;0.73;;;;;;;20.66;58.00;101191.97;4984936;28;20068;-54
2023/08/29 08:41:31;;;;;;;1.58;1.08;;;;;;;20.66;57.97;101197.38;4973301;28;20050;-54
2023/08/29 08:44:03;;;;;;;1.50;0.65;;;;;;;20.66;58.18;101194.66;4985895;28;20054;-54
2023/08/29 08:46:29;;;;;;;0.88;0.88;;;;;;;20.67;58.51;101190.94;4991017;28;20421;-54
2023/08/29 08:48:54;;;;;;;2.83;0.90;;;;;;;20.69;58.35;101185.38;4989250;28;20122;-54
2023/08/29 08:51:22;;;;;;;1.45;0.90;;;;;;;20.68;58.63;101179.13;4989524;28;20476;-53
2023/08/29 08:53:50;;;;;;;5.47;0.90;;;;;;;20.67;59.05;101190.94;4988973;28;20087;-54
2023/08/29 08:56:16;;;;;;;1.10;0.90;;;;;;;20.68;58.86;101186.41;4990753;28;20022;-54
2023/08/29 08:58:41;;;;;;;2.50;0.82;;;;;;;20.69;58.81;101183.56;4988946;28;20041;-52
2023/08/29 09:01:07;;;;;;;2.08;0.90;;;;;;;20.70;59.19;101174.41;4987945;28;20485;-54
2023/08/29 09:03:34;;;;;;;1.77;1.10;;;;;;;20.70;59.03;101179.81;4994074;28;20117;-54
2023/08/29 09:05:59;;;;;;;0.82;0.60;;;;;;;20.72;58.97;101173.41;4993802;28;20038;-54
2023/08/29 09:08:25;;;;;;;3.25;1.33;;;;;;;20.72;59.47;101170.72;4993704;28;20596;-54
2023/08/29 09:10:51;;;;;;;5.60;1.02;;;;;;;20.75;59.61;101178.50;4992826;28;20543;-55
2023/08/29 09:13:17;;;;;;;4.90;1.02;;;;;;;20.76;59.92;101180.22;4992405;28;20038;-54
2023/08/29 09:15:42;;;;;;;1.83;1.08;;;;;;;20.76;59.64;101177.50;4988137;28;20046;-55
2023/08/29 09:18:13;;;;;;;11.18;1.10;;;;;;;20.78;59.88;101181.75;4987561;28;20046;-55
2023/08/29 09:20:42;;;;;;;4.15;1.63;;;;;;;20.78;59.61;101179.03;4987337;28;20028;-55
2023/08/29 09:23:29;;;;;;;6.35;1.45;;;;;;;20.81;59.65;101188.69;4986709;28;20373;-55
2023/08/29 09:25:56;;;;;;;3.08;1.17;;;;;;;20.79;59.86;101190.69;4986507;28;20042;-55
2023/08/29 09:28:25;;;;;;;3.55;1.35;;;;;;;20.79;59.80;101188.00;4987662;28;20098;-55
2023/08/29 09:30:51;;;;;;;8.07;1.38;;;;;;;20.79;60.14;101188.00;4993119;28;20049;-55
2023/08/29 09:33:22;;;;;;;1.75;0.80;;;;;;;20.82;59.64;101185.00;4989122;28;20037;-55
2023/08/29 09:35:50;;;;;;;;;;;;;;;20.87;59.50;101186.22;4986312;28;20029;-55
2023/08/29 09:38:18;;;;;;;5.63;1.13;;;;;;;20.83;60.05;101194.81;4993516;28;19925;-55
2023/08/29 09:40:48;;;;;;;5.15;1.00;;;;;;;20.84;59.59;101191.09;4986713;28;20026;-55
2023/08/29 09:43:15;;;;;;;5.90;1.20;;;;;;;20.83;60.00;101192.97;4986774;28;20469;-55
2023/08/29 09:45:41;;;;;;;3.40;1.25;;;;;;;20.84;59.84;101183.81;4988182;28;20022;-55
2023/08/29 09:48:08;;;;;;;3.33;0.85;;;;;;;20.82;60.21;101183.13;4986629;28;20039;-56
2023/08/29 09:50:35;;;;;;;4.97;0.95;;;;;;;20.83;60.11;101184.00;4986507;28;20049;-55
2023/08/29 09:53:02;;;;;;;5.47;1.00;;;;;;;20.82;60.04;101179.56;4983841;28;20042;-55
2023/08/29 09:55:33;;;;;;;5.57;0.93;;;;;;;20.83;59.85;101167.75;4984885;28;20222;-55
2023/08/29 09:58:01;;;;;;;8.15;1.35;;;;;;;20.85;59.82;101173.84;4983773;28;20077;-55
2023/08/29 10:00:27;;;;;;;13.80;1.45;;;;;;;20.83;60.28;101165.06;4984038;28;20031;-55
2023/08/29 10:02:56;;;;;;;7.63;1.20;;;;;;;20.84;60.07;101166.72;4985381;28;20045;-55
2023/08/29 10:05:25;;;;;;;1.30;0.80;;;;;;;20.85;60.16;101168.44;4983950;28;20476;-55
2023/08/29 10:07:55;;;;;;;2.05;1.10;;;;;;;20.86;60.02;101167.41;4985338;28;20049;-55
2023/08/29 10:10:21;;;;;;;4.25;1.30;;;;;;;20.85;59.57;101165.75;4993346;28;20387;-55
2023/08/29 10:12:48;;;;;;;2.42;0.98;;;;;;;20.83;59.96;101163.19;4987362;28;20033;-55
2023/08/29 10:15:16;;;;;;;4.10;0.77;;;;;;;20.85;59.94;101163.88;4987425;28;20499;-55
2023/08/29 10:17:43;;;;;;;4.38;0.73;;;;;;;20.87;59.45;101169.13;4986608;28;20036;-55
2023/08/29 10:20:12;;;;;;;2.53;1.00;;;;;;;20.86;59.89;101162.84;4986129;28;20046;-55
2023/08/29 10:22:40;;;;;;;3.50;0.77;;;;;;;20.87;60.03;101158.31;4992468;28;20052;-55
2023/08/29 10:25:06;;;;;;;1.08;0.88;;;;;;;20.87;59.81;101158.31;4989362;28;20041;-55
2023/08/29 10:27:33;;;;;;;1.23;0.70;;;;;;;20.86;60.15;101157.44;4988963;28;20043;-55
2023/08/29 10:29:59;;;;;;;1.23;0.75;;;;;;;20.88;60.07;101160.84;4991101;28;20113;-57
2023/08/29 10:32:26;;;;;;;2.22;0.80;;;;;;;20.88;60.12;101152.72;4987363;28;20031;-55
2023/08/29 10:34:52;;;;;;;1.48;0.60;;;;;;;20.89;59.92;101156.28;4986376;28;20040;-55
2023/08/29 10:37:18;;;;;;;4.28;0.70;;;;;;;20.89;59.62;101151.72;4988349;28;20113;-55
2023/08/29 10:39:44;;;;;;;5.03;0.90;;;;;;;20.91;59.81;101153.44;4993804;28;20033;-56
2023/08/29 10:42:13;;;;;;;1.50;0.75;;;;;;;20.89;59.93;101153.59;4994932;28;20041;-55
2023/08/29 10:44:41;;;;;;;2.25;0.80;;;;;;;20.91;59.77;101153.44;4995427;28;20026;-55
2023/08/29 10:47:27;;;;;;;2.90;0.60;;;;;;;20.91;59.68;101153.44;4994538;28;20058;-55
2023/08/29 10:50:05;;;;;;;3.70;0.82;;;;;;;20.91;59.83;101148.88;4993281;28;20376;-57
2023/08/29 10:52:41;;;;;;;2.22;0.80;;;;;;;20.93;59.29;101140.59;4993405;28;20092;-55
2023/08/29 10:55:32;;;;;;;4.10;1.08;;;;;;;20.92;59.50;101139.72;4990815;28;20023;-56
2023/08/29 10:58:00;;;;;;;1.38;0.70;;;;;;;20.92;59.66;101138.88;4989990;28;20059;-56
2023/08/29 11:00:41;;;;;;;3.95;0.80;;;;;;;20.93;59.71;101130.59;4989971;28;20026;-56
2023/08/29 11:03:06;;;;;;;3.50;1.00;;;;;;;20.94;59.43;101132.28;4989103;28;20034;-55
2023/08/29 11:05:32;;;;;;;2.35;0.85;;;;;;;20.93;59.29;101125.19;4989282;28;20037;-55
2023/08/29 11:08:21;;;;;;;3.03;0.77;;;;;;;20.95;59.26;101125.88;4993729;28;20046;-55
2023/08/29 11:11:22;;;;;;;7.50;1.10;;;;;;;20.97;59.48;101131.97;4994491;28;20026;-56
2023/08/29 11:14:03;;;;;;;3.38;0.93;;;;;;;20.96;59.75;101127.59;4995710;28;20384;-55
2023/08/29 11:16:30;;;;;;;4.10;0.82;;;;;;;20.96;59.51;101130.28;4993931;28;20548;-55
2023/08/29 11:19:06;;;;;;;3.30;0.93;;;;;;;20.97;59.96;101120.31;4992761;28;20022;-55
2023/08/29 11:21:32;;;;;;;1.98;0.63;;;;;;;20.98;59.88;101119.28;4992072;28;20084;-55